SBOSBO BRU / EBBR
Speedbird OnlineSpeedbird Online BRU / EBBR

Brussels Airport
08:50 10°C

Location Brussels, Belgium
Latitude: 50.901401519800004
Longitude: 4.48443984985
Web Airport Website | Wikipedia
Altitude 56 Meter / 184 Feet
Distance 311 KM / 193 Miles
from London.
Time Zone UTC +2 hours (Europe/Brussels)
Codes IATA: BRU
ICAO: EBBR
Currency £1 equals EUR 1.15
Runways
RunwayLength (m)Surface
012987Asphalt
07L3638Asphalt
07R3211Asphalt
192987Asphalt
25L3211Asphalt
25R3638Asphalt
Radio
TypeDescriptionFrequency
APPAPP118.255
ATISATIS DEP121.755
ATISATIS ARR132.475
CLDCLNC DEL121.95
DEPDEP126.63
GNDGND North118.055
GNDGND South121.88
OPSMELSBROEK OPS140.575
TWRTWR (RWY 07R/25L and 01)118.605
TWRTWR (RWY 07L/25R or 19)120.78
UNICABELAG UNICOM130.55
Live ATC
METAR EBBR 060620Z 23007KT CAVOK 11/07 Q1028 NOSIG
TAF TAF EBBR 060500Z 0606/0712 23007KT 9999 FEW030
Weather As Of 06 Oct 2022 08:50
Description Clear sky
Wind 13 km/h from South-West (230°)
Cloud Cover 0%
Precipitation Rain: none, Snow: none
Sunrise 07:49
Sunset 19:10
Lounges Diamond Lounge Pier B, Non-Schengen
THE LOFT by Brussels Airlines , Pier A
Diamond Lounge Pier A, Pier A
The Suite, Pier B
Rotations During the last 90 days there were
140 flights from LHR
142 flights to LHR
1 flights to LUX


© 2017-2022 Speedbird Online